Time;durP1;ratioP1;P1;durP2;ratioP2;P2;SDS_P1;SDS_P2;PMS_P1;PMS_P2;Temp;Humidity;BMP_temperature;BMP_pressure;BME280_temperature;BME280_humidity;BME280_pressure;Samples;Min_cycle;Max_cycle;Signal;HPM_P1;HPM_P2
2023/01/04 00:00:47;;;;;;;;;;;15.60;83.40;;;;;;5035157;28;19914;-86
2023/01/04 00:03:12;;;;;;;;;;;15.50;83.50;;;;;;5035714;28;20278;-86
2023/01/04 00:05:38;;;;;;;;;;;15.50;83.30;;;;;;5038063;28;19945;-85
2023/01/04 00:08:04;;;;;;;;;;;15.50;83.60;;;;;;5038277;28;19909;-86
2023/01/04 00:10:29;;;;;;;;;;;15.50;83.60;;;;;;5037143;28;19921;-86
2023/01/04 00:12:55;;;;;;;;;;;15.50;83.70;;;;;;5038325;28;19909;-86
2023/01/04 00:15:20;;;;;;;;;;;15.40;83.50;;;;;;5038355;28;19916;-87
2023/01/04 00:17:46;;;;;;;;;;;15.40;83.90;;;;;;5038290;28;20041;-86
2023/01/04 00:20:12;;;;;;;;;;;15.40;83.90;;;;;;5036873;28;19909;-86
2023/01/04 00:22:37;;;;;;;;;;;15.40;84.00;;;;;;5039141;28;19948;-86
2023/01/04 00:25:03;;;;;;;;;;;15.40;84.20;;;;;;5038766;28;20057;-85
2023/01/04 00:27:29;;;;;;;;;;;15.30;84.20;;;;;;5056287;28;19967;-86
2023/01/04 00:29:54;;;;;;;;;;;15.30;84.20;;;;;;5039014;28;19965;-86
2023/01/04 00:32:20;;;;;;;;;;;15.30;84.20;;;;;;5039014;28;20067;-86
2023/01/04 00:34:46;;;;;;;;;;;15.30;84.30;;;;;;5039956;28;19990;-86
2023/01/04 00:37:11;;;;;;;;;;;15.30;84.10;;;;;;5041315;28;20176;-86
2023/01/04 00:39:42;;;;;;;;;;;15.20;84.10;;;;;;5041682;28;19909;-86
2023/01/04 00:42:08;;;;;;;;;;;15.20;84.00;;;;;;5040907;28;19909;-87
2023/01/04 00:44:34;;;;;;;;;;;15.20;84.20;;;;;;5042458;28;19995;-86
2023/01/04 00:47:00;;;;;;;;;;;15.20;84.00;;;;;;5058812;28;19908;-88
2023/01/04 00:49:26;;;;;;;;;;;15.20;84.10;;;;;;5041978;28;20285;-86
2023/01/04 00:51:52;;;;;;;;;;;15.20;84.00;;;;;;5059512;28;19923;-86
2023/01/04 00:54:18;;;;;;;;;;;15.10;84.10;;;;;;5039720;28;19913;-86
2023/01/04 00:56:44;;;;;;;;;;;15.10;84.20;;;;;;5039319;28;19919;-86
2023/01/04 00:59:11;;;;;;;;;;;15.10;85.00;;;;;;5038414;28;19908;-86
2023/01/04 01:01:38;;;;;;;;;;;15.10;84.30;;;;;;5055353;28;19920;-86
2023/01/04 01:04:03;;;;;;;;;;;15.10;84.30;;;;;;5055598;28;19944;-86
2023/01/04 01:06:30;;;;;;;;;;;15.10;84.20;;;;;;5039442;28;19909;-87
2023/01/04 01:08:56;;;;;;;;;;;15.10;84.40;;;;;;5039401;28;19917;-86
2023/01/04 01:11:38;;;;;;;;;;;15.10;84.70;;;;;;5057530;28;19909;-86
2023/01/04 01:14:21;;;;;;;;;;;15.00;84.50;;;;;;5040261;28;19924;-86
2023/01/04 01:16:46;;;;;;;;;;;15.00;84.70;;;;;;5039772;28;19935;-85
2023/01/04 01:24:17;;;;;;;;;;;15.00;85.00;;;;;;5051541;28;20204;-10
2023/01/04 01:26:43;;;;;;;;;;;15.00;84.90;;;;;;5053489;28;19909;-10
2023/01/04 01:29:09;;;;;;;;;;;15.00;84.90;;;;;;5053901;28;19927;-10
2023/01/04 01:31:35;;;;;;;;;;;14.90;85.00;;;;;;5056780;28;19990;-10
2023/01/04 01:34:00;;;;;;;;;;;14.90;85.00;;;;;;5056534;28;20319;-10
2023/01/04 01:36:26;;;;;;;;;;;14.90;85.00;;;;;;5056433;28;20332;-10
2023/01/04 01:38:52;;;;;;;;;;;14.90;85.10;;;;;;5054665;28;20211;-10
2023/01/04 01:41:19;;;;;;;;;;;14.90;85.10;;;;;;5054699;28;19919;-10
2023/01/04 01:43:48;;;;;;;;;;;14.90;85.00;;;;;;5053735;28;19955;-10
2023/01/04 01:46:15;;;;;;;;;;;14.90;85.20;;;;;;5053815;28;19971;-10
2023/01/04 01:48:41;;;;;;;;;;;14.80;85.10;;;;;;5054134;28;19909;-10
2023/01/04 01:51:07;;;;;;;;;;;14.80;85.20;;;;;;5054312;28;19916;-10
2023/01/04 01:53:34;;;;;;;;;;;14.80;85.30;;;;;;5055199;28;20099;-10
2023/01/04 01:56:00;;;;;;;;;;;14.80;85.50;;;;;;5054159;28;19913;-10
2023/01/04 01:58:37;;;;;;;;;;;14.80;85.50;;;;;;5054382;28;19998;-10
2023/01/04 02:01:03;;;;;;;;;;;14.80;86.20;;;;;;5055710;28;19962;-10
2023/01/04 02:03:30;;;;;;;;;;;14.80;85.70;;;;;;5053615;28;19917;-10
2023/01/04 02:05:57;;;;;;;;;;;14.80;85.80;;;;;;5054650;28;19917;-10
2023/01/04 02:08:23;;;;;;;;;;;14.80;86.00;;;;;;5055110;28;19920;-10
2023/01/04 02:10:49;;;;;;;;;;;14.70;86.00;;;;;;5055418;28;19990;-10
2023/01/04 02:13:17;;;;;;;;;;;14.70;86.00;;;;;;5055543;28;20085;-10
2023/01/04 02:16:01;;;;;;;;;;;14.70;86.20;;;;;;5056631;28;19909;-10
2023/01/04 02:18:32;;;;;;;;;;;14.70;86.30;;;;;;5057045;28;19995;-10
2023/01/04 02:21:18;;;;;;;;;;;14.70;86.40;;;;;;5057320;28;19908;-10
2023/01/04 02:23:59;;;;;;;;;;;14.70;86.40;;;;;;5055692;28;20279;-10
2023/01/04 02:26:41;;;;;;;;;;;14.70;86.50;;;;;;5056666;28;19909;-10
2023/01/04 02:29:06;;;;;;;;;;;14.70;86.60;;;;;;5056546;28;19908;-10
2023/01/04 02:31:34;;;;;;;;;;;14.60;86.60;;;;;;5057707;28;19920;-10
2023/01/04 02:34:12;;;;;;;;;;;14.60;86.70;;;;;;5057357;28;19913;-10
2023/01/04 02:36:44;;;;;;;;;;;14.60;86.80;;;;;;5056132;28;19908;-10
2023/01/04 02:39:10;;;;;;;;;;;14.60;87.10;;;;;;5054462;28;19913;-10
2023/01/04 02:41:40;;;;;;;;;;;14.60;87.10;;;;;;5054967;28;20015;-10
2023/01/04 02:47:04;;;;;;;;;;;14.60;87.30;;;;;;5054856;28;19939;-10
2023/01/04 02:52:14;;;;;;;;;;;14.50;87.40;;;;;;5055453;28;19958;-10
2023/01/04 02:54:41;;;;;;;;;;;14.50;87.60;;;;;;5055235;28;20306;-10
2023/01/04 02:57:09;;;;;;;;;;;14.50;87.60;;;;;;5054171;28;19974;-10
2023/01/04 02:59:58;;;;;;;;;;;14.50;87.80;;;;;;5053955;28;19916;-10
2023/01/04 03:08:27;;;;;;;;;;;14.50;88.20;;;;;;5034501;28;19909;-10
2023/01/04 03:10:58;;;;;;;;;;;14.50;88.30;;;;;;5052738;28;19905;-10
2023/01/04 03:13:28;;;;;;;;;;;14.50;88.50;;;;;;5057397;28;21863;-10
2023/01/04 03:15:57;;;;;;;;;;;14.40;88.50;;;;;;5057268;28;19908;-10
2023/01/04 03:18:25;;;;;;;;;;;14.40;88.60;;;;;;5056614;28;19909;-10
2023/01/04 03:20:51;;;;;;;;;;;14.40;88.70;;;;;;5056265;28;19913;-10
2023/01/04 03:37:19;;;;;;;;;;;14.40;89.40;;;;;;5076157;28;19919;-10
2023/01/04 03:48:29;;;;;;;;;;;14.30;89.90;;;;;;5076454;28;19915;-10
2023/01/04 03:51:04;;;;;;;;;;;14.30;90.00;;;;;;5074910;28;19908;-10
2023/01/04 03:53:32;;;;;;;;;;;14.30;90.00;;;;;;5058220;28;19913;-10
2023/01/04 03:55:58;;;;;;;;;;;14.30;90.30;;;;;;5074795;28;19935;-10
2023/01/04 03:58:24;;;;;;;;;;;15.10;86.60;;;;;;5058048;28;19920;-10
2023/01/04 04:00:50;;;;;;;;;;;15.80;81.60;;;;;;5056340;28;19912;-10
2023/01/04 04:03:15;;;;;;;;;;;16.20;78.40;;;;;;5073773;28;20294;-11
2023/01/04 04:08:29;;;;;;;;;;;16.80;74.10;;;;;;5073987;28;19931;-11
2023/01/04 04:13:44;;;;;;;;;;;17.40;70.00;;;;;;5076834;28;19977;-11
2023/01/04 04:16:10;;;;;;;;;;;17.60;68.90;;;;;;5059697;28;19975;-11
2023/01/04 04:18:35;;;;;;;;;;;17.70;68.00;;;;;;5077174;28;20004;-11
2023/01/04 04:21:01;;;;;;;;;;;17.80;67.40;;;;;;5078356;28;20014;-11
2023/01/04 04:23:26;;;;;;;;;;;17.80;67.10;;;;;;5060398;28;19916;-11
2023/01/04 04:25:52;;;;;;;;;;;17.80;66.90;;;;;;5057130;28;19935;-11
2023/01/04 04:28:17;;;;;;;;;;;18.00;66.50;;;;;;5071129;28;19909;-11
2023/01/04 04:30:52;;;;;;;;;;;18.00;66.30;;;;;;5063321;28;20139;-11
2023/01/04 04:33:18;;;;;;;;;;;18.10;65.70;;;;;;5063557;28;20163;-11
2023/01/04 04:35:43;;;;;;;;;;;18.30;65.00;;;;;;5081457;28;20489;-11
2023/01/04 04:38:09;;;;;;;;;;;18.30;64.80;;;;;;5081364;28;19909;-11
2023/01/04 04:43:36;;;;;;;;;;;18.40;64.30;;;;;;5079233;28;19966;-11
2023/01/04 04:46:01;;;;;;;;;;;18.50;64.30;;;;;;5077308;28;19917;-11
2023/01/04 04:48:27;;;;;;;;;;;18.40;64.20;;;;;;5077429;28;20301;-11
2023/01/04 04:50:53;;;;;;;;;;;18.40;64.30;;;;;;5060815;28;19918;-11
2023/01/04 04:53:18;;;;;;;;;;;18.30;64.40;;;;;;5077253;28;20006;-11
2023/01/04 04:55:44;;;;;;;;;;;18.30;64.80;;;;;;5077864;28;19912;-11
2023/01/04 04:58:09;;;;;;;;;;;18.20;65.30;;;;;;5059490;28;20100;-11
2023/01/04 05:00:35;;;;;;;;;;;18.10;65.80;;;;;;5076500;28;19913;-11
2023/01/04 05:03:01;;;;;;;;;;;18.00;66.20;;;;;;5077695;28;19916;-11
2023/01/04 05:05:26;;;;;;;;;;;18.00;66.60;;;;;;5076877;28;19913;-11
2023/01/04 05:07:52;;;;;;;;;;;17.80;67.00;;;;;;5075902;28;19997;-11
2023/01/04 05:10:17;;;;;;;;;;;17.70;67.70;;;;;;5058007;28;19920;-11
2023/01/04 05:12:58;;;;;;;;;;;17.60;68.40;;;;;;5058155;28;19924;-11
2023/01/04 05:15:26;;;;;;;;;;;17.50;69.00;;;;;;5074973;28;19912;-11
2023/01/04 05:17:51;;;;;;;;;;;17.40;69.80;;;;;;5055940;28;20141;-11
2023/01/04 05:20:17;;;;;;;;;;;17.30;70.30;;;;;;5072461;28;19916;-11
2023/01/04 05:22:42;;;;;;;;;;;17.20;71.00;;;;;;5073896;28;19952;-11
2023/01/04 05:25:08;;;;;;;;;;;17.10;71.60;;;;;;5059015;28;19908;-11
2023/01/04 05:27:35;;;;;;;;;;;17.10;72.20;;;;;;5059152;28;20540;-11
2023/01/04 05:32:45;;;;;;;;;;;16.90;73.40;;;;;;5075848;28;19916;-11
2023/01/04 05:35:10;;;;;;;;;;;16.90;74.00;;;;;;5074656;28;19912;-11
2023/01/04 05:37:36;;;;;;;;;;;16.80;74.10;;;;;;5059269;28;19999;-11
2023/01/04 05:40:02;;;;;;;;;;;16.90;73.80;;;;;;5074878;28;19944;-11
2023/01/04 05:42:27;;;;;;;;;;;16.90;73.60;;;;;;5057148;28;20288;-11
2023/01/04 05:44:54;;;;;;;;;;;17.00;73.30;;;;;;5056791;28;19970;-11
2023/01/04 05:47:20;;;;;;;;;;;17.10;72.80;;;;;;5074111;28;19908;-11
2023/01/04 05:49:45;;;;;;;;;;;17.20;72.00;;;;;;5055424;28;19916;-11
2023/01/04 05:52:11;;;;;;;;;;;17.50;70.60;;;;;;5073538;28;19908;-11
2023/01/04 05:54:36;;;;;;;;;;;17.70;69.10;;;;;;5074554;28;20237;-11
2023/01/04 05:57:02;;;;;;;;;;;17.90;67.80;;;;;;5074301;28;19908;-11
2023/01/04 05:59:28;;;;;;;;;;;18.00;67.00;;;;;;5074453;28;19908;-11
2023/01/04 06:01:53;;;;;;;;;;;18.20;66.20;;;;;;5067595;22;19944;-11
2023/01/04 06:04:19;;;;;;;;;;;18.20;65.80;;;;;;5055932;28;20353;-11
2023/01/04 06:06:45;;;;;;;;;;;18.30;65.50;;;;;;5055839;28;19975;-11
2023/01/04 06:09:10;;;;;;;;;;;18.30;65.10;;;;;;5055627;28;20298;-11
2023/01/04 06:11:36;;;;;;;;;;;18.30;65.10;;;;;;5055466;28;20278;-11
2023/01/04 06:14:01;;;;;;;;;;;18.30;65.00;;;;;;5054447;28;19916;-11
2023/01/04 06:16:27;;;;;;;;;;;18.30;65.00;;;;;;5055578;28;19970;-11
2023/01/04 06:18:53;;;;;;;;;;;18.30;65.00;;;;;;5055304;28;19908;-11
2023/01/04 06:21:18;;;;;;;;;;;18.30;64.90;;;;;;5054648;28;19912;-11
2023/01/04 06:23:44;;;;;;;;;;;18.30;65.00;;;;;;5054189;28;20008;-11
2023/01/04 06:26:10;;;;;;;;;;;18.30;65.10;;;;;;5052680;28;19909;-11
2023/01/04 06:28:35;;;;;;;;;;;18.30;65.10;;;;;;5051893;28;19920;-11
2023/01/04 06:31:04;;;;;;;;;;;18.20;65.40;;;;;;5053436;28;19909;-11
2023/01/04 06:33:31;;;;;;;;;;;18.20;65.70;;;;;;5053062;28;19968;-11
2023/01/04 06:35:56;;;;;;;;;;;18.10;65.80;;;;;;5053684;28;19909;-11
2023/01/04 06:38:22;;;;;;;;;;;18.10;66.20;;;;;;5053183;28;19943;-11
2023/01/04 06:40:47;;;;;;;;;;;18.00;66.60;;;;;;5053611;28;19909;-11
2023/01/04 06:43:13;;;;;;;;;;;17.90;67.10;;;;;;5052633;28;19994;-11
2023/01/04 06:45:38;;;;;;;;;;;17.90;67.60;;;;;;5064293;23;20114;-78
2023/01/04 06:48:04;;;;;;;;;;;17.70;68.10;;;;;;5034262;28;19924;-78
2023/01/04 06:50:30;;;;;;;;;;;17.70;68.50;;;;;;5034216;28;19956;-78
2023/01/04 06:52:58;;;;;;;;;;;17.70;68.90;;;;;;5052222;28;19913;-78
2023/01/04 06:55:24;;;;;;;;;;;17.60;69.20;;;;;;5049195;28;19923;-78
2023/01/04 06:57:50;;;;;;;;;;;17.50;69.60;;;;;;5031842;28;20241;-78
2023/01/04 07:00:15;;;;;;;;;;;17.50;70.30;;;;;;5033920;28;19909;-78
2023/01/04 07:02:41;;;;;;;;;;;17.40;71.80;;;;;;5035458;28;19909;-78
2023/01/04 07:05:07;;;;;;;;;;;17.30;73.00;;;;;;5052460;28;20205;-78
2023/01/04 07:07:33;;;;;;;;;;;17.30;73.90;;;;;;5034214;28;19913;-78
2023/01/04 07:09:58;;;;;;;;;;;17.20;74.50;;;;;;5052576;28;20057;-78
2023/01/04 07:12:24;;;;;;;;;;;17.20;75.20;;;;;;5034239;28;20084;-78
2023/01/04 07:14:50;;;;;;;;;;;17.20;76.00;;;;;;5050530;28;19916;-78
2023/01/04 07:17:16;;;;;;;;;;;17.20;76.20;;;;;;5049554;28;19912;-78
2023/01/04 07:19:42;;;;;;;;;;;17.30;76.50;;;;;;5032511;28;19916;-78
2023/01/04 07:22:07;;;;;;;;;;;17.40;76.30;;;;;;5033228;28;20018;-78
2023/01/04 07:24:42;;;;;;;;;;;17.50;76.10;;;;;;5032063;28;20306;-78
2023/01/04 07:27:08;;;;;;;;;;;17.50;76.70;;;;;;5030344;28;19916;-78
2023/01/04 07:29:34;;;;;;;;;;;17.60;76.20;;;;;;5031542;28;19952;-78
2023/01/04 07:31:59;;;;;;;;;;;17.70;75.70;;;;;;5032669;28;19947;-78
2023/01/04 07:34:25;;;;;;;;;;;17.70;75.90;;;;;;5031567;28;19959;-78
2023/01/04 07:36:50;;;;;;;;;;;17.80;75.20;;;;;;5050932;28;20363;-78
2023/01/04 07:39:17;;;;;;;;;;;17.90;74.80;;;;;;5033509;28;19908;-78
2023/01/04 07:41:42;;;;;;;;;;;18.00;73.90;;;;;;5032653;28;19943;-78
2023/01/04 07:44:08;;;;;;;;;;;18.10;73.00;;;;;;5030042;28;19917;-77
2023/01/04 07:46:34;;;;;;;;;;;18.20;72.50;;;;;;5034103;28;19917;-78
2023/01/04 07:49:00;;;;;;;;;;;18.20;72.10;;;;;;5033401;28;19920;-78
2023/01/04 07:51:26;;;;;;;;;;;18.20;71.80;;;;;;5031252;28;19916;-79
2023/01/04 07:53:52;;;;;;;;;;;18.20;71.70;;;;;;5030929;28;19912;-78
2023/01/04 07:56:20;;;;;;;;;;;18.20;71.70;;;;;;5048933;28;19909;-78
2023/01/04 07:58:46;;;;;;;;;;;18.10;71.80;;;;;;5030952;28;20078;-78
2023/01/04 08:01:13;;;;;;;;;;;18.10;71.70;;;;;;5030510;28;20335;-78
2023/01/04 08:03:39;;;;;;;;;;;18.10;71.70;;;;;;5048874;28;19974;-78
2023/01/04 08:06:09;;;;;;;;;;;18.20;71.70;;;;;;5048159;28;19908;-78
2023/01/04 08:08:35;;;;;;;;;;;18.10;71.70;;;;;;5049391;28;20188;-79
2023/01/04 08:11:05;;;;;;;;;;;18.10;71.80;;;;;;5048351;28;19959;-78
2023/01/04 08:13:31;;;;;;;;;;;18.10;72.10;;;;;;5047718;28;19931;-78
2023/01/04 08:15:56;;;;;;;;;;;18.00;72.50;;;;;;5032001;28;20318;-78
2023/01/04 08:18:22;;;;;;;;;;;17.90;72.80;;;;;;5030567;28;20214;-79
2023/01/04 08:20:48;;;;;;;;;;;17.90;73.20;;;;;;5031935;28;19919;-79
2023/01/04 08:23:14;;;;;;;;;;;17.80;73.60;;;;;;5031315;28;19908;-79
2023/01/04 08:25:39;;;;;;;;;;;17.70;74.00;;;;;;5032861;28;19919;-78
2023/01/04 08:28:05;;;;;;;;;;;17.70;74.90;;;;;;5031358;28;20380;-78
2023/01/04 08:30:30;;;;;;;;;;;17.60;74.60;;;;;;5030963;28;19989;-78
2023/01/04 08:32:56;;;;;;;;;;;17.60;75.00;;;;;;5030305;28;20240;-78
2023/01/04 08:35:22;;;;;;;;;;;17.50;75.40;;;;;;5030246;28;19936;-78
2023/01/04 08:37:48;;;;;;;;;;;17.50;75.90;;;;;;5050321;28;19909;-78
2023/01/04 08:40:14;;;;;;;;;;;17.30;76.40;;;;;;5034391;28;20205;-78
2023/01/04 08:42:39;;;;;;;;;;;17.30;77.40;;;;;;5035069;28;19909;-78
2023/01/04 08:45:05;;;;;;;;;;;17.10;78.00;;;;;;5036686;28;19909;-78
2023/01/04 08:50:34;;;;;;;;;;;16.90;79.60;;;;;;5050431;28;20065;-78
2023/01/04 08:53:00;;;;;;;;;;;16.80;80.50;;;;;;5032445;28;19908;-78
2023/01/04 08:55:25;;;;;;;;;;;16.80;81.00;;;;;;5031350;28;19924;-78
2023/01/04 08:57:51;;;;;;;;;;;16.80;81.40;;;;;;5033921;28;20008;-78
2023/01/04 09:00:20;;;;;;;;;;;16.90;81.10;;;;;;5033446;28;19917;-78
2023/01/04 09:02:46;;;;;;;;;;;17.40;78.80;;;;;;5032953;28;19909;-78
2023/01/04 09:05:11;;;;;;;;;;;17.80;75.50;;;;;;5033614;28;20245;-78
2023/01/04 09:07:37;;;;;;;;;;;18.20;73.20;;;;;;5032948;28;20053;-78
2023/01/04 09:10:03;;;;;;;;;;;18.50;71.30;;;;;;5032169;28;19917;-78
2023/01/04 09:12:28;;;;;;;;;;;18.80;69.80;;;;;;5035363;28;19944;-78
2023/01/04 09:14:54;;;;;;;;;;;18.90;68.90;;;;;;5033518;28;19994;-78
2023/01/04 09:17:20;;;;;;;;;;;18.90;68.50;;;;;;5051692;28;19936;-78
2023/01/04 09:19:45;;;;;;;;;;;19.00;68.00;;;;;;5035293;28;19909;-78
2023/01/04 09:22:11;;;;;;;;;;;19.00;67.80;;;;;;5053492;28;20202;-78
2023/01/04 09:24:43;;;;;;;;;;;19.00;67.80;;;;;;5057551;28;19909;-78
2023/01/04 09:27:08;;;;;;;;;;;18.90;68.00;;;;;;5040928;28;20430;-77
2023/01/04 09:29:34;;;;;;;;;;;18.90;68.40;;;;;;5039867;28;19909;-78
2023/01/04 09:31:59;;;;;;;;;;;18.80;68.90;;;;;;5037520;28;20146;-77
2023/01/04 09:34:25;;;;;;;;;;;18.70;69.60;;;;;;5054385;28;20179;-78
2023/01/04 09:36:51;;;;;;;;;;;18.60;70.50;;;;;;5037412;28;20004;-78
2023/01/04 09:39:17;;;;;;;;;;;18.40;71.40;;;;;;5053297;28;19974;-79
2023/01/04 09:41:53;;;;;;;;;;;18.30;72.40;;;;;;5054472;28;19976;-78
2023/01/04 09:44:25;;;;;;;;;;;18.20;73.20;;;;;;5037210;28;19909;-77
2023/01/04 09:46:54;;;;;;;;;;;18.10;73.90;;;;;;5037363;28;19930;-78
2023/01/04 09:49:32;;;;;;;;;;;18.00;75.40;;;;;;5037949;28;19944;-78
2023/01/04 09:52:04;;;;;;;;;;;17.90;75.40;;;;;;5057171;28;19916;-78
2023/01/04 09:54:36;;;;;;;;;;;17.80;76.20;;;;;;5034241;28;19913;-78
2023/01/04 09:57:02;;;;;;;;;;;17.70;77.10;;;;;;5031649;28;19909;-78
2023/01/04 09:59:30;;;;;;;;;;;17.60;78.10;;;;;;5050226;28;19905;-77
2023/01/04 10:02:10;;;;;;;;;;;17.50;79.20;;;;;;5049698;28;19913;-77
2023/01/04 10:04:40;;;;;;;;;;;17.40;79.70;;;;;;5029686;28;19928;-77
2023/01/04 10:07:13;;;;;;;;;;;17.30;80.20;;;;;;5026255;28;19916;-77
2023/01/04 10:09:38;;;;;;;;;;;17.30;80.50;;;;;;5046649;28;20133;-78
2023/01/04 10:12:27;;;;;;;;;;;17.30;81.10;;;;;;5029158;28;19909;-77
2023/01/04 10:15:11;;;;;;;;;;;17.30;81.40;;;;;;5048640;28;19992;-78
2023/01/04 10:17:46;;;;;;;;;;;17.30;81.60;;;;;;5034749;28;20340;-77
2023/01/04 10:20:14;;;;;;;;;;;17.30;81.50;;;;;;5031130;28;20306;-77
2023/01/04 10:22:46;;;;;;;;;;;17.40;81.30;;;;;;5029393;28;20115;-77
2023/01/04 10:25:47;;;;;;;;;;;17.50;80.70;;;;;;5028499;28;20039;-78
2023/01/04 10:28:22;;;;;;;;;;;17.50;80.30;;;;;;4950855;28;19918;-78
2023/01/04 10:31:01;;;;;;;;;;;17.70;79.60;;;;;;5019711;28;19909;-78
2023/01/04 10:33:27;;;;;;;;;;;17.80;78.50;;;;;;5047265;28;19975;-78
2023/01/04 10:35:52;;;;;;;;;;;18.00;77.80;;;;;;5031213;28;20584;-78
2023/01/04 10:38:26;;;;;;;;;;;18.00;77.40;;;;;;5030222;28;19909;-78
2023/01/04 10:40:53;;;;;;;;;;;18.10;77.00;;;;;;5030249;28;20278;-78
2023/01/04 10:43:31;;;;;;;;;;;18.20;76.20;;;;;;5029661;28;19915;-78
2023/01/04 10:46:01;;;;;;;;;;;18.30;75.80;;;;;;5046881;28;19916;-78
2023/01/04 10:48:49;;;;;;;;;;;18.30;75.20;;;;;;5047856;28;19912;-78
2023/01/04 10:51:19;;;;;;;;;;;18.50;74.60;;;;;;5041438;28;19909;-78
2023/01/04 10:53:52;;;;;;;;;;;18.50;73.80;;;;;;5012247;28;20076;-77
2023/01/04 10:56:24;;;;;;;;;;;18.60;73.70;;;;;;5012674;28;19972;-78
2023/01/04 10:59:05;;;;;;;;;;;18.60;73.50;;;;;;5014500;28;19945;-78
2023/01/04 11:01:52;;;;;;;;;;;18.60;73.40;;;;;;5034356;28;19975;-79
2023/01/04 11:04:21;;;;;;;;;;;18.60;73.80;;;;;;5042103;28;19913;-78
2023/01/04 11:07:11;;;;;;;;;;;18.50;74.50;;;;;;5018706;28;20000;-78
2023/01/04 11:09:37;;;;;;;;;;;18.50;74.20;;;;;;5036187;28;19909;-78
2023/01/04 11:12:03;;;;;;;;;;;18.40;75.00;;;;;;5011337;28;20164;-78
2023/01/04 11:14:28;;;;;;;;;;;18.30;75.40;;;;;;5011417;28;19944;-78
2023/01/04 11:17:00;;;;;;;;;;;18.30;76.00;;;;;;5011250;28;19909;-78
2023/01/04 11:19:26;;;;;;;;;;;18.20;76.50;;;;;;5009817;28;20133;-78
2023/01/04 11:21:57;;;;;;;;;;;18.20;77.10;;;;;;5009063;28;19909;-78
2023/01/04 11:24:25;;;;;;;;;;;18.10;77.50;;;;;;5009803;28;19954;-78
2023/01/04 11:26:51;;;;;;;;;;;18.00;78.20;;;;;;5026777;28;20077;-78
2023/01/04 11:29:33;;;;;;;;;;;17.90;78.70;;;;;;5010045;28;20328;-78
2023/01/04 11:32:02;;;;;;;;;;;17.90;79.20;;;;;;5013881;28;20006;-78
2023/01/04 11:34:47;;;;;;;;;;;17.90;79.70;;;;;;5015032;28;19928;-79
2023/01/04 11:37:26;;;;;;;;;;;17.80;80.10;;;;;;5013713;28;19920;-78
2023/01/04 11:40:10;;;;;;;;;;;17.80;80.70;;;;;;5010147;28;19909;-78
2023/01/04 11:42:35;;;;;;;;;;;17.70;81.00;;;;;;5010766;28;20135;-78
2023/01/04 11:45:01;;;;;;;;;;;17.70;81.50;;;;;;5013584;28;19978;-78
2023/01/04 11:47:27;;;;;;;;;;;17.60;82.50;;;;;;5011633;28;20458;-78
2023/01/04 11:49:55;;;;;;;;;;;17.60;82.40;;;;;;5014719;28;19910;-78
2023/01/04 11:52:44;;;;;;;;;;;17.60;82.80;;;;;;5013109;28;19909;-77
2023/01/04 11:55:21;;;;;;;;;;;17.60;83.20;;;;;;5014183;28;20290;-78
2023/01/04 11:57:47;;;;;;;;;;;17.60;83.30;;;;;;5015526;28;20299;-77
2023/01/04 12:00:14;;;;;;;;;;;17.60;83.40;;;;;;5030939;28;20070;-78
2023/01/04 12:02:40;;;;;;;;;;;17.60;83.50;;;;;;5010899;28;19917;-78
2023/01/04 12:05:16;;;;;;;;;;;17.70;83.40;;;;;;5026007;28;19963;-78
2023/01/04 12:07:42;;;;;;;;;;;17.70;83.00;;;;;;5008720;28;19913;-78
2023/01/04 12:10:36;;;;;;;;;;;17.70;83.00;;;;;;5008096;28;20161;-78
2023/01/04 12:13:02;;;;;;;;;;;17.80;83.00;;;;;;5010585;28;20305;-78
2023/01/04 12:15:36;;;;;;;;;;;17.80;82.50;;;;;;5026326;28;19923;-78
2023/01/04 12:18:05;;;;;;;;;;;17.80;82.80;;;;;;5029689;28;19908;-78
2023/01/04 12:20:30;;;;;;;;;;;17.90;83.00;;;;;;5030237;28;20058;-78
2023/01/04 12:22:57;;;;;;;;;;;17.90;82.70;;;;;;5030479;28;19959;-78
2023/01/04 12:25:23;;;;;;;;;;;17.90;82.50;;;;;;5035990;28;20194;-77
2023/01/04 12:27:49;;;;;;;;;;;18.00;82.20;;;;;;5037433;28;19909;-78
2023/01/04 12:30:34;;;;;;;;;;;18.00;82.00;;;;;;5036623;28;19963;-78
2023/01/04 12:33:19;;;;;;;;;;;18.00;82.00;;;;;;5034590;28;19976;-79
2023/01/04 12:36:05;;;;;;;;;;;18.10;82.40;;;;;;5036899;28;19913;-79
2023/01/04 12:38:49;;;;;;;;;;;18.10;81.70;;;;;;5054239;28;19917;-79
2023/01/04 12:41:15;;;;;;;;;;;18.10;81.70;;;;;;5033912;28;19909;-79
2023/01/04 12:43:40;;;;;;;;;;;18.10;82.00;;;;;;5035885;28;19920;-79
2023/01/04 12:49:28;;;;;;;;;;;17.90;83.20;;;;;;5051484;28;19919;-79
2023/01/04 12:52:06;;;;;;;;;;;17.80;84.20;;;;;;5033664;28;20085;-79
2023/01/04 12:54:56;;;;;;;;;;;17.60;85.20;;;;;;5032288;28;20340;-79
2023/01/04 12:57:37;;;;;;;;;;;17.50;86.40;;;;;;5032924;28;19962;-79
2023/01/04 13:00:07;;;;;;;;;;;17.40;87.30;;;;;;5031256;28;19916;-79
2023/01/04 13:02:42;;;;;;;;;;;17.30;88.20;;;;;;5031479;28;19940;-78
2023/01/04 13:05:17;;;;;;;;;;;17.20;89.20;;;;;;5033620;28;19909;-78
2023/01/04 13:08:02;;;;;;;;;;;17.10;89.70;;;;;;5037675;28;19917;-78
2023/01/04 13:10:27;;;;;;;;;;;17.10;90.00;;;;;;5057273;28;19912;-78
2023/01/04 13:12:53;;;;;;;;;;;17.10;90.10;;;;;;5039051;28;19920;-78
2023/01/04 13:15:46;;;;;;;;;;;17.30;89.70;;;;;;5038984;28;19913;-78
2023/01/04 13:18:21;;;;;;;;;;;17.50;88.40;;;;;;5026957;28;19912;-78
2023/01/04 13:20:46;;;;;;;;;;;17.90;86.40;;;;;;5029107;28;19908;-78
2023/01/04 13:23:12;;;;;;;;;;;18.20;84.40;;;;;;5029582;28;19917;-79
2023/01/04 13:25:38;;;;;;;;;;;18.50;82.70;;;;;;5031382;28;19909;-78
2023/01/04 13:28:04;;;;;;;;;;;18.70;81.40;;;;;;5019473;28;19924;-78
2023/01/04 13:30:40;;;;;;;;;;;18.90;80.00;;;;;;5011595;28;19952;-78
2023/01/04 13:33:10;;;;;;;;;;;19.00;79.00;;;;;;5020017;28;19909;-79
2023/01/04 13:35:36;;;;;;;;;;;19.10;78.20;;;;;;5002703;28;19921;-78
2023/01/04 13:38:02;;;;;;;;;;;19.20;77.60;;;;;;5018764;28;19921;-78
2023/01/04 13:40:36;;;;;;;;;;;19.20;77.50;;;;;;5003905;28;20214;-78
2023/01/04 13:43:13;;;;;;;;;;;19.10;77.90;;;;;;5016762;28;19910;-78
2023/01/04 13:45:58;;;;;;;;;;;19.10;78.50;;;;;;5010998;28;19933;-78
2023/01/04 13:48:25;;;;;;;;;;;18.90;79.10;;;;;;4998257;28;20275;-78
2023/01/04 13:50:59;;;;;;;;;;;18.80;79.80;;;;;;4992905;28;19921;-78
2023/01/04 13:53:26;;;;;;;;;;;18.80;80.70;;;;;;4991002;28;19980;-78
2023/01/04 13:55:53;;;;;;;;;;;18.50;82.90;;;;;;4990638;28;20291;-78
2023/01/04 13:58:27;;;;;;;;;;;18.40;84.40;;;;;;5010486;28;19987;-78
2023/01/04 14:01:12;;;;;;;;;;;18.20;86.00;;;;;;4990624;28;20279;-78
2023/01/04 14:03:45;;;;;;;;;;;18.10;88.00;;;;;;4975061;28;19960;-77
2023/01/04 14:06:17;;;;;;;;;;;18.00;90.30;;;;;;4994248;28;20067;-78
2023/01/04 14:08:49;;;;;;;;;;;17.90;91.40;;;;;;4992509;28;20177;-78
2023/01/04 14:14:24;;;;;;;;;;;17.70;92.90;;;;;;5012169;28;19921;-78
2023/01/04 14:17:03;;;;;;;;;;;17.60;93.60;;;;;;4994768;28;19910;-78
2023/01/04 14:19:40;;;;;;;;;;;17.50;94.30;;;;;;4993792;28;20339;-78
2023/01/04 14:22:18;;;;;;;;;;;17.40;94.90;;;;;;4994039;28;19917;-78
2023/01/04 14:24:44;;;;;;;;;;;17.30;95.70;;;;;;4992959;28;19913;-78
2023/01/04 14:27:28;;;;;;;;;;;17.30;96.10;;;;;;4991460;28;19910;-78
2023/01/04 14:29:54;;;;;;;;;;;17.20;96.40;;;;;;4997777;28;19924;-78
2023/01/04 14:32:20;;;;;;;;;;;17.20;96.60;;;;;;4996563;28;19918;-78
2023/01/04 14:34:45;;;;;;;;;;;17.10;96.70;;;;;;5010398;28;19921;-77
2023/01/04 14:37:11;;;;;;;;;;;17.10;96.90;;;;;;4991956;28;19920;-78
2023/01/04 14:39:37;;;;;;;;;;;17.10;97.10;;;;;;4991950;28;19909;-78
2023/01/04 14:42:03;;;;;;;;;;;17.00;96.90;;;;;;4990705;28;19909;-78
2023/01/04 14:44:30;;;;;;;;;;;17.00;97.00;;;;;;4971952;28;20451;-78
2023/01/04 14:47:00;;;;;;;;;;;17.00;97.10;;;;;;5001281;28;20246;-78
2023/01/04 14:49:26;;;;;;;;;;;17.00;97.20;;;;;;5007662;28;20213;-78
2023/01/04 14:51:56;;;;;;;;;;;17.00;97.20;;;;;;5029977;28;19920;-78
2023/01/04 14:54:23;;;;;;;;;;;17.00;97.30;;;;;;5027657;28;20143;-78
2023/01/04 14:56:49;;;;;;;;;;;17.00;97.30;;;;;;5011087;28;19909;-78
2023/01/04 14:59:15;;;;;;;;;;;17.00;97.30;;;;;;5040948;28;19924;-78
2023/01/04 15:01:41;;;;;;;;;;;17.00;97.30;;;;;;5037325;28;19909;-78
2023/01/04 15:04:06;;;;;;;;;;;17.00;97.30;;;;;;5037468;28;19966;-78
2023/01/04 15:06:32;;;;;;;;;;;17.10;97.10;;;;;;5050408;28;19909;-78
2023/01/04 15:08:58;;;;;;;;;;;17.20;96.70;;;;;;5029901;28;20065;-79
2023/01/04 15:11:24;;;;;;;;;;;17.20;96.60;;;;;;5035494;28;19909;-78
2023/01/04 15:13:50;;;;;;;;;;;17.30;96.50;;;;;;5047480;28;19908;-78
2023/01/04 15:16:16;;;;;;;;;;;17.30;96.50;;;;;;5030543;28;20014;-78
2023/01/04 15:18:48;;;;;;;;;;;17.30;96.50;;;;;;5033984;28;19952;-78
2023/01/04 15:21:27;;;;;;;;;;;17.30;96.40;;;;;;5038668;28;19908;-79
2023/01/04 15:23:53;;;;;;;;;;;17.30;96.40;;;;;;5021576;28;19920;-78
2023/01/04 15:26:18;;;;;;;;;;;17.40;96.30;;;;;;5028837;28;19916;-78